createdAt,value
2019-04-27T00:00:03.638Z,66.42
2019-04-27T00:01:05.262Z,65.84
2019-04-27T00:02:03.728Z,66.96
2019-04-27T00:03:03.925Z,67.25
2019-04-27T00:04:03.967Z,66.80
2019-04-27T00:05:03.324Z,66.22
2019-04-27T00:06:05.404Z,66.32
2019-04-27T00:07:02.984Z,66.32
2019-04-27T00:08:02.933Z,66.38
2019-04-27T00:09:03.506Z,66.19
2019-04-27T00:10:03.508Z,66.67
2019-04-27T00:11:06.947Z,66.58
2019-04-27T00:12:03.469Z,66.42
2019-04-27T00:13:05.570Z,65.65
2019-04-27T00:14:03.721Z,65.62
2019-04-27T00:15:03.325Z,66.71
2019-04-27T00:16:05.519Z,66.38
2019-04-27T00:17:03.819Z,66.22
2019-04-27T00:18:03.564Z,66.13
2019-04-27T00:19:01.891Z,65.75
2019-04-27T00:20:04.161Z,65.91
2019-04-27T00:21:03.492Z,66.96
2019-04-27T00:22:03.163Z,66.77
2019-04-27T00:23:03.375Z,66.77
2019-04-27T00:24:03.414Z,67.21
2019-04-27T00:25:03.509Z,67.91
2019-04-27T00:26:03.155Z,66.86
2019-04-27T00:27:03.278Z,66.38
2019-04-27T00:28:01.816Z,67.44
2019-04-27T00:29:01.807Z,66.86
2019-04-27T00:30:03.690Z,66.86
2019-04-27T00:31:03.292Z,66.86
2019-04-27T00:32:01.787Z,66.19
2019-04-27T00:33:03.040Z,66.86
2019-04-27T00:34:03.435Z,66.38
2019-04-27T00:35:03.548Z,66.93
2019-04-27T00:36:03.017Z,67.05
2019-04-27T00:37:03.584Z,67.79
2019-04-27T00:38:03.151Z,67.44
2019-04-27T00:39:01.725Z,66.38
2019-04-27T00:40:03.354Z,67.34
2019-04-27T00:41:02.953Z,67.34
2019-04-27T00:42:03.207Z,67.05
2019-04-27T00:43:02.990Z,67.54
2019-04-27T00:44:03.331Z,66.86
2019-04-27T00:45:03.019Z,66.38
2019-04-27T00:46:01.672Z,67.15
2019-04-27T00:47:03.504Z,66.93
2019-04-27T00:48:03.336Z,67.05
2019-04-27T00:49:03.473Z,67.31
2019-04-27T00:50:03.437Z,67.72
2019-04-27T00:51:01.628Z,66.96
2019-04-27T00:52:01.629Z,67.63
2019-04-27T00:53:03.268Z,67.15
2019-04-27T00:54:01.613Z,66.86
2019-04-27T00:55:03.127Z,67.69
2019-04-27T00:56:01.591Z,68.36
2019-04-27T00:57:03.168Z,66.96
2019-04-27T00:58:01.578Z,66.67
2019-04-27T00:59:03.176Z,66.86
2019-04-27T01:00:03.215Z,67.25
2019-04-27T01:01:01.549Z,66.09
2019-04-27T01:02:01.550Z,66.86
2019-04-27T01:03:01.547Z,66.93
2019-04-27T01:04:03.631Z,67.82
2019-04-27T01:05:01.522Z,67.82
2019-04-27T01:06:03.128Z,67.60
2019-04-27T01:07:02.926Z,67.88
2019-04-27T01:08:01.494Z,67.98
2019-04-27T01:09:03.372Z,68.36
2019-04-27T01:10:02.978Z,68.74
2019-04-27T01:11:02.936Z,69.13
2019-04-27T01:12:01.465Z,69.32
2019-04-27T01:13:03.162Z,68.94
2019-04-27T01:14:01.443Z,68.07
2019-04-27T01:15:03.552Z,68.36
2019-04-27T01:16:01.435Z,69.32
2019-04-27T01:17:01.427Z,69.70
2019-04-27T01:18:11.500Z,69.23
2019-04-27T01:19:01.414Z,69.03
2019-04-27T01:20:01.397Z,68.27
2019-04-27T01:21:01.392Z,68.36
2019-04-27T01:22:01.378Z,69.23
2019-04-27T01:23:01.368Z,69.19
2019-04-27T01:24:01.366Z,69.80
2019-04-27T01:25:01.357Z,69.03
2019-04-27T01:26:01.353Z,69.99
2019-04-27T01:27:01.345Z,69.89
2019-04-27T01:28:01.327Z,68.84
2019-04-27T01:29:01.325Z,69.48
2019-04-27T01:30:01.323Z,69.57
2019-04-27T01:31:01.316Z,69.60
2019-04-27T01:32:01.297Z,69.42
2019-04-27T01:33:01.289Z,68.94
2019-04-27T01:34:01.281Z,68.21
2019-04-27T01:35:01.274Z,67.15
2019-04-27T01:36:01.274Z,68.07
2019-04-27T01:37:01.278Z,69.03
2019-04-27T01:38:01.257Z,68.94
2019-04-27T01:39:01.244Z,68.94
2019-04-27T01:40:01.233Z,69.42
2019-04-27T01:41:01.258Z,69.70
2019-04-27T01:42:01.247Z,68.65
2019-04-27T01:43:01.210Z,68.84
2019-04-27T01:44:01.233Z,68.84
2019-04-27T01:45:01.197Z,69.32
2019-04-27T01:46:01.237Z,69.80
2019-04-27T01:47:01.175Z,70.09
2019-04-27T01:48:01.190Z,70.05
2019-04-27T01:49:01.170Z,70.34
2019-04-27T01:50:01.156Z,69.99
2019-04-27T01:51:01.153Z,69.60
2019-04-27T01:52:01.139Z,69.67
2019-04-27T01:53:01.128Z,69.70
2019-04-27T01:54:01.118Z,69.76
2019-04-27T01:55:01.112Z,69.32
2019-04-27T01:56:01.107Z,68.94
2019-04-27T01:57:01.957Z,69.32
2019-04-27T01:58:01.105Z,69.60
2019-04-27T01:59:01.090Z,68.49
2019-04-27T02:00:01.071Z,67.88
2019-04-27T02:01:01.064Z,69.09
2019-04-27T02:02:01.060Z,70.05
2019-04-27T02:03:01.056Z,70.24
2019-04-27T02:04:01.036Z,68.55
2019-04-27T02:05:01.877Z,69.19
2019-04-27T02:06:01.024Z,68.27
2019-04-27T02:07:01.012Z,68.46
2019-04-27T02:08:01.010Z,68.07
2019-04-27T02:09:01.004Z,67.98
2019-04-27T02:10:00.994Z,68.74
2019-04-27T02:11:00.985Z,68.23
2019-04-27T02:12:00.971Z,68.84
2019-04-27T02:13:00.968Z,68.84
2019-04-27T02:14:00.967Z,68.17
2019-04-27T02:15:00.952Z,68.27
2019-04-27T02:16:00.952Z,68.17
2019-04-27T02:17:00.937Z,68.71
2019-04-27T02:18:00.923Z,68.55
2019-04-27T02:19:00.937Z,68.71
2019-04-27T02:20:00.913Z,68.55
2019-04-27T02:21:00.904Z,68.07
2019-04-27T02:22:00.898Z,68.33
2019-04-27T02:23:00.890Z,67.79
2019-04-27T02:24:00.885Z,67.21
2019-04-27T02:25:00.881Z,68.17
2019-04-27T02:26:00.882Z,68.90
2019-04-27T02:27:00.849Z,68.90
2019-04-27T02:28:00.852Z,69.19
2019-04-27T02:29:00.839Z,69.80
2019-04-27T02:30:00.833Z,68.94
2019-04-27T02:31:01.849Z,69.23
2019-04-27T02:32:02.958Z,69.09
2019-04-27T02:33:00.806Z,69.13
2019-04-27T02:34:00.803Z,68.90
2019-04-27T02:35:00.799Z,68.52
2019-04-27T02:36:00.795Z,68.52
2019-04-27T02:37:02.699Z,68.80
2019-04-27T02:38:00.774Z,69.09
2019-04-27T02:39:00.751Z,68.74
2019-04-27T02:40:00.756Z,68.71
2019-04-27T02:41:00.750Z,69.09
2019-04-27T02:42:00.740Z,68.90
2019-04-27T02:43:00.726Z,68.62
2019-04-27T02:44:01.815Z,70.05
2019-04-27T02:45:00.703Z,69.80
2019-04-27T02:46:00.697Z,68.62
2019-04-27T02:47:00.695Z,68.04
2019-04-27T02:48:00.684Z,67.76
2019-04-27T02:49:06.191Z,68.71
2019-04-27T02:50:00.792Z,69.48
2019-04-27T02:51:00.655Z,69.51
2019-04-27T02:52:00.654Z,67.94
2019-04-27T02:53:03.266Z,68.52
2019-04-27T02:54:00.671Z,68.13
2019-04-27T02:55:00.627Z,68.90
2019-04-27T02:56:00.617Z,68.04
2019-04-27T02:57:00.608Z,69.09
2019-04-27T02:58:00.602Z,69.29
2019-04-27T02:59:00.584Z,69.09
2019-04-27T03:00:00.585Z,69.57
2019-04-27T03:01:00.578Z,69.29
2019-04-27T03:02:00.904Z,68.80
2019-04-27T03:03:02.400Z,69.00
2019-04-27T03:04:00.668Z,68.52
2019-04-27T03:05:00.902Z,69.00
2019-04-27T03:06:00.538Z,69.76
2019-04-27T03:07:00.524Z,69.86
2019-04-27T03:08:00.522Z,69.09
2019-04-27T03:09:00.843Z,69.57
2019-04-27T03:10:02.411Z,69.00
2019-04-27T03:11:01.237Z,69.86
2019-04-27T03:12:00.495Z,70.15
2019-04-27T03:13:00.477Z,69.76
2019-04-27T03:14:00.468Z,69.76
2019-04-27T03:15:00.478Z,69.76
2019-04-27T03:16:00.553Z,69.86
2019-04-27T03:17:00.451Z,70.34
2019-04-27T03:18:00.430Z,69.76
2019-04-27T03:19:11.385Z,69.29
2019-04-27T03:20:00.416Z,69.00
2019-04-27T03:21:00.567Z,69.76
2019-04-27T03:22:00.409Z,70.15
2019-04-27T03:23:00.414Z,70.24
2019-04-27T03:24:00.398Z,70.34
2019-04-27T03:25:00.422Z,70.78
2019-04-27T03:26:00.538Z,70.05
2019-04-27T03:27:00.657Z,70.15
2019-04-27T03:28:02.544Z,69.38
2019-04-27T03:29:00.337Z,69.54
2019-04-27T03:30:00.348Z,69.86
2019-04-27T03:31:02.545Z,70.21
2019-04-27T03:32:02.058Z,70.40
2019-04-27T03:33:03.057Z,69.76
2019-04-27T03:34:05.297Z,69.86
2019-04-27T03:35:02.854Z,70.34
2019-04-27T03:36:02.516Z,70.15
2019-04-27T03:37:00.287Z,70.78
2019-04-27T03:38:00.729Z,70.68
2019-04-27T03:39:00.275Z,70.87
2019-04-27T03:40:00.339Z,70.68
2019-04-27T03:41:00.670Z,70.78
2019-04-27T03:42:00.336Z,70.53
2019-04-27T03:43:00.222Z,70.59
2019-04-27T03:44:00.224Z,70.62
2019-04-27T03:45:00.706Z,70.53
2019-04-27T03:46:00.687Z,70.62
2019-04-27T03:47:00.194Z,70.78
2019-04-27T03:48:00.493Z,70.78
2019-04-27T03:49:00.274Z,70.81
2019-04-27T03:50:00.698Z,70.91
2019-04-27T03:51:00.155Z,70.72
2019-04-27T03:52:02.926Z,70.43
2019-04-27T03:53:00.158Z,70.53
2019-04-27T03:54:00.601Z,70.68
2019-04-27T03:55:00.124Z,70.53
2019-04-27T03:56:00.152Z,71.20
2019-04-27T03:57:02.403Z,71.11
2019-04-27T03:58:00.399Z,70.43
2019-04-27T03:59:00.093Z,70.53
2019-04-27T04:00:00.240Z,70.40
2019-04-27T04:01:00.211Z,70.68
2019-04-27T04:02:02.410Z,70.68
2019-04-27T04:03:00.638Z,70.53
2019-04-27T04:04:00.116Z,71.16
2019-04-27T04:05:00.087Z,71.07
2019-04-27T04:06:00.398Z,70.87
2019-04-27T04:07:00.025Z,70.68
2019-04-27T04:08:00.583Z,70.87
2019-04-27T04:09:00.420Z,70.40
2019-04-27T04:10:00.492Z,70.59
2019-04-27T04:10:59.989Z,70.59
2019-04-27T04:12:02.247Z,70.68
2019-04-27T04:13:01.299Z,70.40
2019-04-27T04:14:00.315Z,71.07
2019-04-27T04:15:00.162Z,70.87
2019-04-27T04:16:00.339Z,71.07
2019-04-27T04:17:02.835Z,70.40
2019-04-27T04:17:59.957Z,70.68
2019-04-27T04:19:00.718Z,70.43
2019-04-27T04:20:01.363Z,70.43
2019-04-27T04:21:00.543Z,70.43
2019-04-27T04:22:00.055Z,70.68
2019-04-27T04:23:03.152Z,70.97
2019-04-27T04:24:00.880Z,70.87
2019-04-27T04:25:00.153Z,70.81
2019-04-27T04:25:59.931Z,70.62
2019-04-27T04:27:00.148Z,70.30
2019-04-27T04:28:00.674Z,70.34
2019-04-27T04:29:00.075Z,69.95
2019-04-27T04:29:59.828Z,70.11
2019-04-27T04:31:00.484Z,70.59
2019-04-27T04:32:00.458Z,70.91
2019-04-27T04:33:00.092Z,70.59
2019-04-27T04:34:00.009Z,70.24
2019-04-27T04:35:01.300Z,70.15
2019-04-27T04:35:59.964Z,70.50
2019-04-27T04:37:00.471Z,70.72
2019-04-27T04:38:00.363Z,69.48
2019-04-27T04:39:00.633Z,70.05
2019-04-27T04:39:59.898Z,69.95
2019-04-27T04:40:59.779Z,69.95
2019-04-27T04:41:59.944Z,70.62
2019-04-27T04:43:00.356Z,69.76
2019-04-27T04:43:59.950Z,69.48
2019-04-27T04:45:00.464Z,69.67
2019-04-27T04:45:59.728Z,69.86
2019-04-27T04:47:00.513Z,69.86
2019-04-27T04:47:59.803Z,69.60
2019-04-27T04:49:00.298Z,68.46
2019-04-27T04:50:08.573Z,68.65
2019-04-27T04:51:00.054Z,68.46
2019-04-27T04:51:59.728Z,68.01
2019-04-27T04:53:00.030Z,67.60
2019-04-27T04:53:59.944Z,67.88
2019-04-27T04:55:02.459Z,68.17
2019-04-27T04:56:00.382Z,67.63
2019-04-27T04:56:59.646Z,67.98
2019-04-27T04:57:59.592Z,68.55
2019-04-27T04:59:00.151Z,68.84
2019-04-27T04:59:59.578Z,68.33
2019-04-27T05:01:01.603Z,69.13
2019-04-27T05:02:00.257Z,69.23
2019-04-27T05:02:59.706Z,68.17
2019-04-27T05:03:59.546Z,68.94
2019-04-27T05:04:59.542Z,68.65
2019-04-27T05:05:59.524Z,68.07
2019-04-27T05:06:59.533Z,68.65
2019-04-27T05:08:00.721Z,69.51
2019-04-27T05:08:59.645Z,69.80
2019-04-27T05:09:59.499Z,69.48
2019-04-27T05:10:59.753Z,69.03
2019-04-27T05:11:59.478Z,69.38
2019-04-27T05:12:59.474Z,69.80
2019-04-27T05:14:01.553Z,69.60
2019-04-27T05:14:59.458Z,69.03
2019-04-27T05:15:59.442Z,67.34
2019-04-27T05:16:59.438Z,66.96
2019-04-27T05:17:59.427Z,66.96
2019-04-27T05:18:59.445Z,67.79
2019-04-27T05:19:59.419Z,68.65
2019-04-27T05:20:59.441Z,68.11
2019-04-27T05:21:59.456Z,67.44
2019-04-27T05:22:59.523Z,67.98
2019-04-27T05:24:00.716Z,68.74
2019-04-27T05:24:59.370Z,69.13
2019-04-27T05:25:59.386Z,69.70
2019-04-27T05:26:59.374Z,69.80
2019-04-27T05:27:59.720Z,69.09
2019-04-27T05:28:59.406Z,69.42
2019-04-27T05:30:00.225Z,69.13
2019-04-27T05:31:00.611Z,68.17
2019-04-27T05:31:59.430Z,68.84
2019-04-27T05:32:59.316Z,69.23
2019-04-27T05:33:59.454Z,69.32
2019-04-27T05:34:59.701Z,69.32
2019-04-27T05:35:59.283Z,69.70
2019-04-27T05:37:01.063Z,69.13
2019-04-27T05:38:02.419Z,69.42
2019-04-27T05:38:59.786Z,68.97
2019-04-27T05:39:59.265Z,68.46
2019-04-27T05:40:59.248Z,69.03
2019-04-27T05:41:59.705Z,69.03
2019-04-27T05:42:59.232Z,68.94
2019-04-27T05:43:59.338Z,68.65
2019-04-27T05:44:59.222Z,68.65
2019-04-27T05:46:01.038Z,69.03
2019-04-27T05:46:59.204Z,69.60
2019-04-27T05:48:00.685Z,69.60
2019-04-27T05:49:01.656Z,68.84
2019-04-27T05:49:59.176Z,69.13
2019-04-27T05:51:01.908Z,68.94
2019-04-27T05:51:59.519Z,69.80
2019-04-27T05:52:59.664Z,69.32
2019-04-27T05:53:59.146Z,67.91
2019-04-27T05:54:59.287Z,68.17
2019-04-27T05:55:59.529Z,68.94
2019-04-27T05:56:59.321Z,69.13
2019-04-27T05:57:59.261Z,68.21
2019-04-27T05:59:00.330Z,67.72
2019-04-27T06:00:02.350Z,67.88
2019-04-27T06:00:59.589Z,68.11
2019-04-27T06:01:59.400Z,67.44
2019-04-27T06:02:59.189Z,67.15
2019-04-27T06:03:59.065Z,66.96
2019-04-27T06:05:00.132Z,66.86
2019-04-27T06:06:01.665Z,67.15
2019-04-27T06:07:01.047Z,67.82
2019-04-27T06:07:59.056Z,66.86
2019-04-27T06:08:59.498Z,66.77
2019-04-27T06:09:59.763Z,67.82
2019-04-27T06:10:59.323Z,68.27
2019-04-27T06:11:59.192Z,68.11
2019-04-27T06:12:59.856Z,68.65
2019-04-27T06:13:59.380Z,68.84
2019-04-27T06:14:59.942Z,69.13
2019-04-27T06:15:59.317Z,69.42
2019-04-27T06:16:59.619Z,68.74
2019-04-27T06:17:59.643Z,68.74
2019-04-27T06:18:59.496Z,69.32
2019-04-27T06:19:59.640Z,68.97
2019-04-27T06:20:59.821Z,67.66
2019-04-27T06:22:01.954Z,66.71
2019-04-27T06:23:00.069Z,67.05
2019-04-27T06:23:59.053Z,67.91
2019-04-27T06:25:00.207Z,68.30
2019-04-27T06:26:01.588Z,67.82
2019-04-27T06:26:59.703Z,68.11
2019-04-27T06:27:59.336Z,68.21
2019-04-27T06:28:59.544Z,67.38
2019-04-27T06:29:59.430Z,66.42
2019-04-27T06:30:59.446Z,66.71
2019-04-27T06:31:59.334Z,66.86
2019-04-27T06:32:59.480Z,66.32
2019-04-27T06:33:59.716Z,66.22
2019-04-27T06:34:59.230Z,66.22
2019-04-27T06:35:59.461Z,66.13
2019-04-27T06:36:59.963Z,66.42
2019-04-27T06:37:58.807Z,66.13
2019-04-27T06:38:59.051Z,66.13
2019-04-27T06:39:59.645Z,66.42
2019-04-27T06:40:59.072Z,65.65
2019-04-27T06:42:01.217Z,65.65
2019-04-27T06:42:59.579Z,66.86
2019-04-27T06:43:59.323Z,67.05
2019-04-27T06:44:59.857Z,67.05
2019-04-27T06:45:58.807Z,66.86
2019-04-27T06:46:59.225Z,66.89
2019-04-27T06:47:59.542Z,66.96
2019-04-27T06:48:59.304Z,67.34
2019-04-27T06:49:58.904Z,67.44
2019-04-27T06:51:03.659Z,68.01
2019-04-27T06:51:58.837Z,66.86
2019-04-27T06:52:59.096Z,66.96
2019-04-27T06:53:59.513Z,67.15
2019-04-27T06:55:00.473Z,66.80
2019-04-27T06:55:58.705Z,65.94
2019-04-27T06:56:59.227Z,66.13
2019-04-27T06:57:58.954Z,66.42
2019-04-27T06:58:59.724Z,66.22
2019-04-27T06:59:59.129Z,65.94
2019-04-27T07:00:59.534Z,65.65
2019-04-27T07:01:59.130Z,64.92
2019-04-27T07:02:59.663Z,64.89
2019-04-27T07:03:59.800Z,65.36
2019-04-27T07:04:59.189Z,65.55
2019-04-27T07:05:58.953Z,65.94
2019-04-27T07:06:59.479Z,65.94
2019-04-27T07:07:59.103Z,65.36
2019-04-27T07:08:59.751Z,65.65
2019-04-27T07:09:59.138Z,65.94
2019-04-27T07:10:58.961Z,65.84
2019-04-27T07:11:59.259Z,65.65
2019-04-27T07:12:59.702Z,65.75
2019-04-27T07:13:59.432Z,65.84
2019-04-27T07:14:59.283Z,66.32
2019-04-27T07:15:59.744Z,66.22
2019-04-27T07:16:59.126Z,66.32
2019-04-27T07:17:58.689Z,66.22
2019-04-27T07:18:59.315Z,66.13
2019-04-27T07:19:59.520Z,65.55
2019-04-27T07:20:58.796Z,65.81
2019-04-27T07:21:59.404Z,65.46
2019-04-27T07:22:59.498Z,65.75
2019-04-27T07:23:59.322Z,65.71
2019-04-27T07:24:59.058Z,66.32
2019-04-27T07:25:59.852Z,66.22
2019-04-27T07:26:59.714Z,65.20
2019-04-27T07:27:59.205Z,64.53
2019-04-27T07:28:59.638Z,64.40
2019-04-27T07:30:00.834Z,64.15
2019-04-27T07:30:58.741Z,64.59
2019-04-27T07:31:59.683Z,65.01
2019-04-27T07:33:00.239Z,64.34
2019-04-27T07:33:59.541Z,64.98
2019-04-27T07:34:58.693Z,64.98
2019-04-27T07:35:59.089Z,64.79
2019-04-27T07:36:59.769Z,65.11
2019-04-27T07:37:58.856Z,64.92
2019-04-27T07:38:59.814Z,64.25
2019-04-27T07:39:59.202Z,64.09
2019-04-27T07:40:58.731Z,64.15
2019-04-27T07:41:58.674Z,64.25
2019-04-27T07:42:59.359Z,64.25
2019-04-27T07:43:58.638Z,63.73
2019-04-27T07:44:59.494Z,64.05
2019-04-27T07:45:59.084Z,63.38
2019-04-27T07:46:59.452Z,63.86
2019-04-27T07:47:59.143Z,64.05
2019-04-27T07:48:59.494Z,63.86
2019-04-27T07:49:59.266Z,63.86
2019-04-27T07:50:59.082Z,64.15
2019-04-27T07:51:58.958Z,64.15
2019-04-27T07:52:58.750Z,64.15
2019-04-27T07:53:58.872Z,64.05
2019-04-27T07:54:58.774Z,63.76
2019-04-27T07:55:59.298Z,64.79
2019-04-27T07:56:58.802Z,65.65
2019-04-27T07:57:59.518Z,64.89
2019-04-27T07:58:59.520Z,65.11
2019-04-27T07:59:59.648Z,64.40
2019-04-27T08:00:59.408Z,64.40
2019-04-27T08:01:59.097Z,64.63
2019-04-27T08:02:58.636Z,63.57
2019-04-27T08:03:59.023Z,63.38
2019-04-27T08:04:59.572Z,63.09
2019-04-27T08:05:58.812Z,64.05
2019-04-27T08:06:59.580Z,63.86
2019-04-27T08:07:59.980Z,63.92
2019-04-27T08:08:59.376Z,64.72
2019-04-27T08:10:01.111Z,63.96
2019-04-27T08:10:59.517Z,63.57
2019-04-27T08:11:58.641Z,63.48
2019-04-27T08:12:59.745Z,64.15
2019-04-27T08:13:58.807Z,63.32
2019-04-27T08:14:59.906Z,63.19
2019-04-27T08:15:59.038Z,63.29
2019-04-27T08:16:58.683Z,63.76
2019-04-27T08:17:59.168Z,63.76
2019-04-27T08:19:00.029Z,64.15
2019-04-27T08:19:59.568Z,63.67
2019-04-27T08:20:59.082Z,63.67
2019-04-27T08:21:59.635Z,63.57
2019-04-27T08:22:59.839Z,63.09
2019-04-27T08:23:58.633Z,63.03
2019-04-27T08:24:59.468Z,63.32
2019-04-27T08:25:58.888Z,63.67
2019-04-27T08:26:59.413Z,64.15
2019-04-27T08:27:57.991Z,63.99
2019-04-27T08:28:58.641Z,63.48
2019-04-27T08:29:58.803Z,63.22
2019-04-27T08:30:58.576Z,63.76
2019-04-27T08:31:58.543Z,63.96
2019-04-27T08:32:59.347Z,64.34
2019-04-27T08:33:58.581Z,64.28
2019-04-27T08:34:59.494Z,64.09
2019-04-27T08:35:59.045Z,63.89
2019-04-27T08:36:58.474Z,63.51
2019-04-27T08:37:59.429Z,63.42
2019-04-27T08:38:58.884Z,63.12
2019-04-27T08:39:59.230Z,63.42
2019-04-27T08:40:59.251Z,63.12
2019-04-27T08:41:59.474Z,63.32
2019-04-27T08:42:59.224Z,63.51
2019-04-27T08:43:58.726Z,63.99
2019-04-27T08:44:59.401Z,64.28
2019-04-27T08:45:58.732Z,63.12
2019-04-27T08:46:59.495Z,62.16
2019-04-27T08:47:59.558Z,62.26
2019-04-27T08:48:58.713Z,62.45
2019-04-27T08:49:59.110Z,61.81
2019-04-27T08:50:59.330Z,61.59
2019-04-27T08:52:01.325Z,61.30
2019-04-27T08:52:57.821Z,61.43
2019-04-27T08:53:59.137Z,60.72
2019-04-27T08:54:59.418Z,60.38
2019-04-27T08:55:59.182Z,60.75
2019-04-27T08:56:59.628Z,61.30
2019-04-27T08:57:58.720Z,61.40
2019-04-27T08:58:59.432Z,61.78
2019-04-27T08:59:59.723Z,61.49
2019-04-27T09:00:59.041Z,61.78
2019-04-27T09:01:58.747Z,62.16
2019-04-27T09:02:59.375Z,62.93
2019-04-27T09:03:59.286Z,63.12
2019-04-27T09:04:59.514Z,62.29
2019-04-27T09:05:59.019Z,60.85
2019-04-27T09:06:59.514Z,60.47
2019-04-27T09:07:59.510Z,60.57
2019-04-27T09:08:59.288Z,60.75
2019-04-27T09:09:59.537Z,60.57
2019-04-27T09:10:58.988Z,61.49
2019-04-27T09:11:59.385Z,61.49
2019-04-27T09:12:58.872Z,62.45
2019-04-27T09:13:58.924Z,61.62
2019-04-27T09:14:59.207Z,60.47
2019-04-27T09:15:57.658Z,60.66
2019-04-27T09:17:00.764Z,61.14
2019-04-27T09:17:58.859Z,60.85
2019-04-27T09:18:59.664Z,60.75
2019-04-27T09:19:59.113Z,60.75
2019-04-27T09:20:58.956Z,60.47
2019-04-27T09:22:10.383Z,59.83
2019-04-27T09:22:59.192Z,59.32
2019-04-27T09:23:59.248Z,59.99
2019-04-27T09:24:59.392Z,59.96
2019-04-27T09:25:59.327Z,60.28
2019-04-27T09:26:59.505Z,59.34
2019-04-27T09:27:59.581Z,59.03
2019-04-27T09:28:59.495Z,58.87
2019-04-27T09:29:59.066Z,58.64
2019-04-27T09:30:58.673Z,59.99
2019-04-27T09:31:59.619Z,60.47
2019-04-27T09:32:57.556Z,60.38
2019-04-27T09:33:57.547Z,59.80
2019-04-27T09:34:57.551Z,59.61
2019-04-27T09:35:57.528Z,59.99
2019-04-27T09:36:57.527Z,59.51
2019-04-27T09:37:57.516Z,60.47
2019-04-27T09:38:57.512Z,60.02
2019-04-27T09:39:57.508Z,59.03
2019-04-27T09:40:58.094Z,58.74
2019-04-27T09:41:57.495Z,59.16
2019-04-27T09:42:57.489Z,59.32
2019-04-27T09:43:57.474Z,59.92
2019-04-27T09:44:57.470Z,59.16
2019-04-27T09:45:57.473Z,58.96
2019-04-27T09:46:57.483Z,58.29
2019-04-27T09:47:57.453Z,58.64
2019-04-27T09:48:57.448Z,58.48
2019-04-27T09:49:57.438Z,58.39
2019-04-27T09:50:57.433Z,58.67
2019-04-27T09:51:57.432Z,58.20
2019-04-27T09:52:57.426Z,58.39
2019-04-27T09:53:57.421Z,57.81
2019-04-27T09:54:57.416Z,56.95
2019-04-27T09:55:57.420Z,56.95
2019-04-27T09:56:57.394Z,57.43
2019-04-27T09:57:57.392Z,58.29
2019-04-27T09:58:57.413Z,57.90
2019-04-27T09:59:57.387Z,57.90
2019-04-27T10:00:57.384Z,57.81
2019-04-27T10:01:57.684Z,57.04
2019-04-27T10:02:57.373Z,56.76
2019-04-27T10:03:57.355Z,56.85
2019-04-27T10:04:57.356Z,57.52
2019-04-27T10:05:57.346Z,57.81
2019-04-27T10:06:57.338Z,57.90
2019-04-27T10:07:57.329Z,57.90
2019-04-27T10:08:57.755Z,58.10
2019-04-27T10:09:57.314Z,57.90
2019-04-27T10:10:57.315Z,57.43
2019-04-27T10:11:57.321Z,55.91
2019-04-27T10:12:57.307Z,56.30
2019-04-27T10:13:57.297Z,56.11
2019-04-27T10:14:57.288Z,55.34
2019-04-27T10:15:57.277Z,55.15
2019-04-27T10:16:57.276Z,55.24
2019-04-27T10:17:57.671Z,53.80
2019-04-27T10:18:57.272Z,54.47
2019-04-27T10:19:57.252Z,54.09
2019-04-27T10:21:01.853Z,54.67
2019-04-27T10:21:57.244Z,54.28
2019-04-27T10:22:57.259Z,54.86
2019-04-27T10:23:57.239Z,55.05
2019-04-27T10:24:57.233Z,54.96
2019-04-27T10:25:57.253Z,55.91
2019-04-27T10:26:57.219Z,55.24
2019-04-27T10:27:57.204Z,55.53
2019-04-27T10:28:57.201Z,55.53
2019-04-27T10:29:58.596Z,56.30
2019-04-27T10:30:57.189Z,56.30
2019-04-27T10:31:57.188Z,54.47
2019-04-27T10:32:57.180Z,54.57
2019-04-27T10:33:57.170Z,53.42
2019-04-27T10:34:57.163Z,53.61
2019-04-27T10:35:57.165Z,54.57
2019-04-27T10:36:57.160Z,54.57
2019-04-27T10:37:57.150Z,54.67
2019-04-27T10:38:57.142Z,56.01
2019-04-27T10:39:57.139Z,54.47
2019-04-27T10:40:57.132Z,54.28
2019-04-27T10:41:57.123Z,54.38
2019-04-27T10:42:57.121Z,53.32
2019-04-27T10:43:57.115Z,53.61
2019-04-27T10:44:57.111Z,53.32
2019-04-27T10:45:57.109Z,54.00
2019-04-27T10:46:57.096Z,53.90
2019-04-27T10:47:57.084Z,55.05
2019-04-27T10:48:57.080Z,53.90
2019-04-27T10:49:57.078Z,53.23
2019-04-27T10:50:57.076Z,53.03
2019-04-27T10:51:57.064Z,54.00
2019-04-27T10:52:59.326Z,53.13
2019-04-27T10:53:57.048Z,53.90
2019-04-27T10:54:57.480Z,52.65
2019-04-27T10:55:57.054Z,53.13
2019-04-27T10:56:57.045Z,54.00
2019-04-27T10:57:57.033Z,52.65
2019-04-27T10:58:57.025Z,53.42
2019-04-27T10:59:57.016Z,53.90
2019-04-27T11:00:58.426Z,53.52
2019-04-27T11:01:57.006Z,52.65
2019-04-27T11:02:58.364Z,54.02
2019-04-27T11:03:57.526Z,52.68
2019-04-27T11:04:56.993Z,53.64
2019-04-27T11:05:57.066Z,52.87
2019-04-27T11:06:56.972Z,52.10
2019-04-27T11:07:56.982Z,51.11
2019-04-27T11:08:56.965Z,52.97
2019-04-27T11:09:56.965Z,52.29
2019-04-27T11:10:56.955Z,52.48
2019-04-27T11:11:56.946Z,52.10
2019-04-27T11:12:56.944Z,52.87
2019-04-27T11:14:00.734Z,51.62
2019-04-27T11:14:56.923Z,52.39
2019-04-27T11:15:56.934Z,52.39
2019-04-27T11:16:56.926Z,52.20
2019-04-27T11:17:56.917Z,53.25
2019-04-27T11:18:58.673Z,52.77
2019-04-27T11:19:56.899Z,52.10
2019-04-27T11:20:56.889Z,52.68
2019-04-27T11:21:56.890Z,51.79
2019-04-27T11:23:07.199Z,54.60
2019-04-27T11:23:56.878Z,54.89
2019-04-27T11:24:56.869Z,51.43
2019-04-27T11:25:56.863Z,51.72
2019-04-27T11:26:56.859Z,51.62
2019-04-27T11:27:57.861Z,51.53
2019-04-27T11:28:58.703Z,51.23
2019-04-27T11:30:01.515Z,55.08
2019-04-27T11:30:56.843Z,52.29
2019-04-27T11:31:56.829Z,51.53
2019-04-27T11:32:59.205Z,52.48
2019-04-27T11:33:56.817Z,51.14
2019-04-27T11:34:56.815Z,52.77
2019-04-27T11:35:56.846Z,53.25
2019-04-27T11:36:56.830Z,54.43
2019-04-27T11:37:56.800Z,51.62
2019-04-27T11:38:56.793Z,52.29
2019-04-27T11:39:56.800Z,52.39
2019-04-27T11:40:56.827Z,51.33
2019-04-27T11:41:56.783Z,49.31
2019-04-27T11:42:57.358Z,49.12
2019-04-27T11:43:56.769Z,50.46
2019-04-27T11:44:58.297Z,50.08
2019-04-27T11:45:56.761Z,51.33
2019-04-27T11:46:56.743Z,51.43
2019-04-27T11:47:57.098Z,50.18
2019-04-27T11:48:58.395Z,48.25
2019-04-27T11:49:57.952Z,49.51
2019-04-27T11:50:56.732Z,50.56
2019-04-27T11:51:56.822Z,50.37
2019-04-27T11:52:56.791Z,50.18
2019-04-27T11:53:56.715Z,49.99
2019-04-27T11:54:56.717Z,51.72
2019-04-27T11:55:56.692Z,50.76
2019-04-27T11:56:56.681Z,55.98
2019-04-27T11:57:56.686Z,53.09
2019-04-27T11:58:56.673Z,55.20
2019-04-27T11:59:58.085Z,54.82
2019-04-27T12:00:56.668Z,55.59
2019-04-27T12:01:56.673Z,56.16
2019-04-27T12:02:56.858Z,56.20
2019-04-27T12:03:56.652Z,56.38
2019-04-27T12:04:56.640Z,56.29
2019-04-27T12:06:00.118Z,56.58
2019-04-27T12:06:56.629Z,56.48
2019-04-27T12:07:56.634Z,56.77
2019-04-27T12:08:56.623Z,56.67
2019-04-27T12:09:56.627Z,56.48
2019-04-27T12:10:56.609Z,56.48
2019-04-27T12:12:06.739Z,56.48
2019-04-27T12:12:56.607Z,56.77
2019-04-27T12:13:56.598Z,56.58
2019-04-27T12:14:56.594Z,56.38
2019-04-27T12:15:56.591Z,56.38
2019-04-27T12:16:56.582Z,54.17
2019-04-27T12:17:56.576Z,51.29
2019-04-27T12:18:56.572Z,51.48
2019-04-27T12:19:56.574Z,51.57
2019-04-27T12:20:56.566Z,50.04
2019-04-27T12:21:56.658Z,49.55
2019-04-27T12:22:56.564Z,48.85
2019-04-27T12:23:56.550Z,50.51
2019-04-27T12:24:56.544Z,49.15
2019-04-27T12:25:56.540Z,48.69
2019-04-27T12:26:57.446Z,48.28
2019-04-27T12:27:56.530Z,47.80
2019-04-27T12:28:56.517Z,48.57
2019-04-27T12:29:56.529Z,49.15
2019-04-27T12:30:56.513Z,49.05
2019-04-27T12:31:56.508Z,48.66
2019-04-27T12:32:56.509Z,50.10
2019-04-27T12:33:56.503Z,50.49
2019-04-27T12:34:56.624Z,50.01
2019-04-27T12:35:56.962Z,51.07
2019-04-27T12:36:56.483Z,50.87
2019-04-27T12:37:56.469Z,52.25
2019-04-27T12:38:56.662Z,52.83
2019-04-27T12:39:57.665Z,51.38
2019-04-27T12:40:56.593Z,50.68
2019-04-27T12:41:56.455Z,50.20
2019-04-27T12:42:56.457Z,51.74
2019-04-27T12:43:56.443Z,50.87
2019-04-27T12:44:56.442Z,49.82
2019-04-27T12:45:56.448Z,50.10
2019-04-27T12:47:02.319Z,51.07
2019-04-27T12:47:56.710Z,50.40
2019-04-27T12:48:57.216Z,50.20
2019-04-27T12:49:57.757Z,51.07
2019-04-27T12:50:56.451Z,52.25
2019-04-27T12:51:56.418Z,51.26